sensor_id;sensor_type;location;lat;lon;timestamp;P1;durP1;ratioP1;P2;durP2;ratioP2
11414;SDS011;5763;42.714;23.244;2023-04-01T00:01:09;8.23;;;3.33;;
11414;SDS011;5763;42.714;23.244;2023-04-01T00:03:38;16.55;;;9.63;;
11414;SDS011;5763;42.714;23.244;2023-04-01T00:06:06;16.40;;;12.23;;
11414;SDS011;5763;42.714;23.244;2023-04-01T00:08:32;18.17;;;11.57;;
11414;SDS011;5763;42.714;23.244;2023-04-01T00:10:59;18.52;;;11.05;;
11414;SDS011;5763;42.714;23.244;2023-04-01T00:13:26;17.63;;;11.43;;
11414;SDS011;5763;42.714;23.244;2023-04-01T00:15:53;17.45;;;10.57;;
11414;SDS011;5763;42.714;23.244;2023-04-01T00:18:21;20.08;;;11.65;;
11414;SDS011;5763;42.714;23.244;2023-04-01T00:20:48;18.83;;;9.90;;
11414;SDS011;5763;42.714;23.244;2023-04-01T00:23:18;11.95;;;8.93;;
11414;SDS011;5763;42.714;23.244;2023-04-01T00:25:45;20.23;;;10.57;;
11414;SDS011;5763;42.714;23.244;2023-04-01T00:28:13;13.20;;;9.98;;
11414;SDS011;5763;42.714;23.244;2023-04-01T00:30:40;17.30;;;10.88;;
11414;SDS011;5763;42.714;23.244;2023-04-01T00:33:07;16.55;;;11.00;;
11414;SDS011;5763;42.714;23.244;2023-04-01T00:35:35;18.48;;;11.02;;
11414;SDS011;5763;42.714;23.244;2023-04-01T00:38:02;19.00;;;11.00;;
11414;SDS011;5763;42.714;23.244;2023-04-01T00:40:30;16.48;;;9.75;;
11414;SDS011;5763;42.714;23.244;2023-04-01T00:42:58;12.48;;;8.48;;
11414;SDS011;5763;42.714;23.244;2023-04-01T00:45:29;15.60;;;8.95;;
11414;SDS011;5763;42.714;23.244;2023-04-01T00:47:59;14.55;;;8.57;;
11414;SDS011;5763;42.714;23.244;2023-04-01T00:50:30;12.57;;;7.65;;
11414;SDS011;5763;42.714;23.244;2023-04-01T00:53:00;12.95;;;8.30;;
11414;SDS011;5763;42.714;23.244;2023-04-01T00:55:29;11.15;;;8.00;;
11414;SDS011;5763;42.714;23.244;2023-04-01T00:57:58;13.82;;;8.07;;
11414;SDS011;5763;42.714;23.244;2023-04-01T01:00:28;15.15;;;9.05;;
11414;SDS011;5763;42.714;23.244;2023-04-01T01:02:54;15.05;;;9.38;;
11414;SDS011;5763;42.714;23.244;2023-04-01T01:05:22;15.32;;;9.02;;
11414;SDS011;5763;42.714;23.244;2023-04-01T01:07:58;14.57;;;10.05;;
11414;SDS011;5763;42.714;23.244;2023-04-01T01:10:35;16.33;;;10.45;;
11414;SDS011;5763;42.714;23.244;2023-04-01T01:13:07;19.85;;;12.38;;
11414;SDS011;5763;42.714;23.244;2023-04-01T01:15:41;18.73;;;12.73;;
11414;SDS011;5763;42.714;23.244;2023-04-01T01:18:16;19.60;;;11.55;;
11414;SDS011;5763;42.714;23.244;2023-04-01T01:24:08;15.40;;;10.65;;
11414;SDS011;5763;42.714;23.244;2023-04-01T01:26:48;13.18;;;10.32;;
11414;SDS011;5763;42.714;23.244;2023-04-01T01:35:32;12.75;;;8.90;;
11414;SDS011;5763;42.714;23.244;2023-04-01T01:38:05;15.32;;;8.90;;
11414;SDS011;5763;42.714;23.244;2023-04-01T01:40:35;12.25;;;8.57;;
11414;SDS011;5763;42.714;23.244;2023-04-01T01:43:05;12.45;;;8.00;;
11414;SDS011;5763;42.714;23.244;2023-04-01T01:45:36;12.90;;;7.88;;
11414;SDS011;5763;42.714;23.244;2023-04-01T01:48:07;13.70;;;8.07;;
11414;SDS011;5763;42.714;23.244;2023-04-01T01:50:36;15.65;;;7.72;;
11414;SDS011;5763;42.714;23.244;2023-04-01T01:53:05;11.48;;;8.60;;
11414;SDS011;5763;42.714;23.244;2023-04-01T01:55:34;10.35;;;7.47;;
11414;SDS011;5763;42.714;23.244;2023-04-01T01:58:04;10.10;;;7.15;;
11414;SDS011;5763;42.714;23.244;2023-04-01T02:00:36;11.73;;;7.72;;
11414;SDS011;5763;42.714;23.244;2023-04-01T02:03:03;13.30;;;8.07;;
11414;SDS011;5763;42.714;23.244;2023-04-01T02:05:31;13.68;;;8.02;;
11414;SDS011;5763;42.714;23.244;2023-04-01T02:08:02;11.32;;;7.88;;
11414;SDS011;5763;42.714;23.244;2023-04-01T02:10:34;11.10;;;7.60;;
11414;SDS011;5763;42.714;23.244;2023-04-01T02:13:05;11.30;;;7.20;;
11414;SDS011;5763;42.714;23.244;2023-04-01T02:15:37;12.52;;;7.75;;
11414;SDS011;5763;42.714;23.244;2023-04-01T02:18:09;8.48;;;6.03;;
11414;SDS011;5763;42.714;23.244;2023-04-01T02:20:37;12.07;;;7.18;;
11414;SDS011;5763;42.714;23.244;2023-04-01T02:23:07;11.80;;;7.13;;
11414;SDS011;5763;42.714;23.244;2023-04-01T02:25:37;10.90;;;5.70;;
11414;SDS011;5763;42.714;23.244;2023-04-01T02:28:04;9.98;;;5.50;;
11414;SDS011;5763;42.714;23.244;2023-04-01T02:30:33;8.65;;;6.07;;
11414;SDS011;5763;42.714;23.244;2023-04-01T02:33:02;8.63;;;5.93;;
11414;SDS011;5763;42.714;23.244;2023-04-01T02:35:32;8.65;;;5.78;;
11414;SDS011;5763;42.714;23.244;2023-04-01T02:38:00;11.45;;;5.97;;
11414;SDS011;5763;42.714;23.244;2023-04-01T02:40:28;10.35;;;6.43;;
11414;SDS011;5763;42.714;23.244;2023-04-01T02:42:55;10.18;;;5.93;;
11414;SDS011;5763;42.714;23.244;2023-04-01T02:45:22;10.45;;;5.97;;
11414;SDS011;5763;42.714;23.244;2023-04-01T02:47:49;8.35;;;5.70;;
11414;SDS011;5763;42.714;23.244;2023-04-01T02:50:15;9.50;;;5.90;;
11414;SDS011;5763;42.714;23.244;2023-04-01T02:52:42;9.32;;;5.60;;
11414;SDS011;5763;42.714;23.244;2023-04-01T02:55:09;8.48;;;6.00;;
11414;SDS011;5763;42.714;23.244;2023-04-01T02:57:37;8.90;;;6.55;;
11414;SDS011;5763;42.714;23.244;2023-04-01T03:00:04;12.95;;;8.73;;
11414;SDS011;5763;42.714;23.244;2023-04-01T03:02:36;12.13;;;7.78;;
11414;SDS011;5763;42.714;23.244;2023-04-01T03:05:04;13.35;;;8.20;;
11414;SDS011;5763;42.714;23.244;2023-04-01T03:07:32;11.90;;;8.25;;
11414;SDS011;5763;42.714;23.244;2023-04-01T03:09:58;16.70;;;9.77;;
11414;SDS011;5763;42.714;23.244;2023-04-01T03:12:25;13.13;;;9.88;;
11414;SDS011;5763;42.714;23.244;2023-04-01T03:14:53;16.73;;;11.55;;
11414;SDS011;5763;42.714;23.244;2023-04-01T03:17:20;14.20;;;11.95;;
11414;SDS011;5763;42.714;23.244;2023-04-01T03:19:47;17.88;;;10.80;;
11414;SDS011;5763;42.714;23.244;2023-04-01T03:22:13;17.27;;;10.68;;
11414;SDS011;5763;42.714;23.244;2023-04-01T03:24:40;11.02;;;8.98;;
11414;SDS011;5763;42.714;23.244;2023-04-01T03:27:07;14.98;;;8.98;;
11414;SDS011;5763;42.714;23.244;2023-04-01T03:29:34;7.13;;;3.05;;
11414;SDS011;5763;42.714;23.244;2023-04-01T03:32:02;3.90;;;1.75;;
11414;SDS011;5763;42.714;23.244;2023-04-01T03:34:28;8.52;;;2.20;;
11414;SDS011;5763;42.714;23.244;2023-04-01T03:36:55;5.60;;;1.45;;
11414;SDS011;5763;42.714;23.244;2023-04-01T03:39:23;4.63;;;1.60;;
11414;SDS011;5763;42.714;23.244;2023-04-01T03:41:50;5.65;;;1.90;;
11414;SDS011;5763;42.714;23.244;2023-04-01T03:44:17;4.32;;;1.50;;
11414;SDS011;5763;42.714;23.244;2023-04-01T03:46:44;4.00;;;1.90;;
11414;SDS011;5763;42.714;23.244;2023-04-01T03:49:12;5.22;;;1.60;;
11414;SDS011;5763;42.714;23.244;2023-04-01T03:51:39;4.43;;;1.55;;
11414;SDS011;5763;42.714;23.244;2023-04-01T03:54:07;5.05;;;1.80;;
11414;SDS011;5763;42.714;23.244;2023-04-01T03:56:34;3.88;;;2.15;;
11414;SDS011;5763;42.714;23.244;2023-04-01T03:59:01;5.13;;;3.53;;
11414;SDS011;5763;42.714;23.244;2023-04-01T04:01:30;8.27;;;4.20;;
11414;SDS011;5763;42.714;23.244;2023-04-01T04:03:57;10.38;;;5.40;;
11414;SDS011;5763;42.714;23.244;2023-04-01T04:06:25;11.10;;;6.85;;
11414;SDS011;5763;42.714;23.244;2023-04-01T04:08:53;9.43;;;6.60;;
11414;SDS011;5763;42.714;23.244;2023-04-01T04:11:21;13.40;;;6.95;;
11414;SDS011;5763;42.714;23.244;2023-04-01T04:13:48;10.73;;;7.30;;
11414;SDS011;5763;42.714;23.244;2023-04-01T04:16:17;11.07;;;6.97;;
11414;SDS011;5763;42.714;23.244;2023-04-01T04:18:44;9.70;;;7.18;;
11414;SDS011;5763;42.714;23.244;2023-04-01T04:21:11;11.30;;;7.63;;
11414;SDS011;5763;42.714;23.244;2023-04-01T04:23:40;11.07;;;8.02;;
11414;SDS011;5763;42.714;23.244;2023-04-01T04:26:08;12.07;;;7.43;;
11414;SDS011;5763;42.714;23.244;2023-04-01T04:28:38;12.65;;;7.20;;
11414;SDS011;5763;42.714;23.244;2023-04-01T04:31:06;11.20;;;7.43;;
11414;SDS011;5763;42.714;23.244;2023-04-01T04:33:33;9.40;;;6.40;;
11414;SDS011;5763;42.714;23.244;2023-04-01T04:36:00;10.02;;;6.95;;
11414;SDS011;5763;42.714;23.244;2023-04-01T04:38:27;10.15;;;6.40;;
11414;SDS011;5763;42.714;23.244;2023-04-01T04:40:55;10.15;;;6.70;;
11414;SDS011;5763;42.714;23.244;2023-04-01T04:43:22;9.82;;;6.38;;
11414;SDS011;5763;42.714;23.244;2023-04-01T04:45:49;14.40;;;6.10;;
11414;SDS011;5763;42.714;23.244;2023-04-01T04:48:16;13.60;;;6.72;;
11414;SDS011;5763;42.714;23.244;2023-04-01T04:50:45;10.82;;;7.03;;
11414;SDS011;5763;42.714;23.244;2023-04-01T04:53:13;9.75;;;6.95;;
11414;SDS011;5763;42.714;23.244;2023-04-01T04:55:44;9.25;;;7.05;;
11414;SDS011;5763;42.714;23.244;2023-04-01T04:58:13;7.97;;;6.05;;
11414;SDS011;5763;42.714;23.244;2023-04-01T05:00:41;9.40;;;6.90;;
11414;SDS011;5763;42.714;23.244;2023-04-01T05:03:08;10.20;;;7.00;;
11414;SDS011;5763;42.714;23.244;2023-04-01T05:05:35;10.18;;;6.90;;
11414;SDS011;5763;42.714;23.244;2023-04-01T05:08:02;11.25;;;6.80;;
11414;SDS011;5763;42.714;23.244;2023-04-01T05:10:29;11.05;;;6.53;;
11414;SDS011;5763;42.714;23.244;2023-04-01T05:12:56;10.27;;;7.20;;
11414;SDS011;5763;42.714;23.244;2023-04-01T05:15:25;9.13;;;6.93;;
11414;SDS011;5763;42.714;23.244;2023-04-01T05:17:51;11.27;;;6.65;;
11414;SDS011;5763;42.714;23.244;2023-04-01T05:20:18;9.38;;;6.45;;
11414;SDS011;5763;42.714;23.244;2023-04-01T05:22:45;9.27;;;6.70;;
11414;SDS011;5763;42.714;23.244;2023-04-01T05:25:12;10.25;;;6.43;;
11414;SDS011;5763;42.714;23.244;2023-04-01T05:27:39;7.95;;;6.10;;
11414;SDS011;5763;42.714;23.244;2023-04-01T05:30:06;10.32;;;6.00;;
11414;SDS011;5763;42.714;23.244;2023-04-01T05:32:34;8.60;;;6.70;;
11414;SDS011;5763;42.714;23.244;2023-04-01T05:35:01;10.50;;;6.38;;
11414;SDS011;5763;42.714;23.244;2023-04-01T05:37:28;10.18;;;5.88;;
11414;SDS011;5763;42.714;23.244;2023-04-01T05:39:55;13.32;;;6.15;;
11414;SDS011;5763;42.714;23.244;2023-04-01T05:42:23;10.88;;;6.03;;
11414;SDS011;5763;42.714;23.244;2023-04-01T05:44:50;8.88;;;6.20;;
11414;SDS011;5763;42.714;23.244;2023-04-01T05:47:17;8.65;;;6.05;;
11414;SDS011;5763;42.714;23.244;2023-04-01T05:49:45;7.82;;;6.22;;
11414;SDS011;5763;42.714;23.244;2023-04-01T05:52:12;12.15;;;6.45;;
11414;SDS011;5763;42.714;23.244;2023-04-01T05:54:38;8.73;;;6.18;;
11414;SDS011;5763;42.714;23.244;2023-04-01T05:57:05;9.52;;;5.82;;
11414;SDS011;5763;42.714;23.244;2023-04-01T05:59:32;9.18;;;6.30;;
11414;SDS011;5763;42.714;23.244;2023-04-01T06:02:00;9.77;;;5.65;;
11414;SDS011;5763;42.714;23.244;2023-04-01T06:04:28;11.27;;;6.18;;
11414;SDS011;5763;42.714;23.244;2023-04-01T06:07:04;8.60;;;5.63;;
11414;SDS011;5763;42.714;23.244;2023-04-01T06:09:37;8.40;;;5.22;;
11414;SDS011;5763;42.714;23.244;2023-04-01T06:12:16;11.38;;;5.75;;
11414;SDS011;5763;42.714;23.244;2023-04-01T06:15:00;11.15;;;5.82;;
11414;SDS011;5763;42.714;23.244;2023-04-01T06:17:42;11.38;;;6.30;;
11414;SDS011;5763;42.714;23.244;2023-04-01T06:20:20;13.00;;;6.75;;
11414;SDS011;5763;42.714;23.244;2023-04-01T06:23:03;12.27;;;6.25;;
11414;SDS011;5763;42.714;23.244;2023-04-01T06:25:52;11.23;;;6.57;;
11414;SDS011;5763;42.714;23.244;2023-04-01T06:32:14;8.40;;;5.68;;
11414;SDS011;5763;42.714;23.244;2023-04-01T06:34:57;10.88;;;5.60;;
11414;SDS011;5763;42.714;23.244;2023-04-01T06:43:41;8.57;;;4.15;;
11414;SDS011;5763;42.714;23.244;2023-04-01T06:46:18;6.93;;;5.13;;
11414;SDS011;5763;42.714;23.244;2023-04-01T06:48:55;10.35;;;4.75;;
11414;SDS011;5763;42.714;23.244;2023-04-01T06:51:34;8.55;;;4.60;;
11414;SDS011;5763;42.714;23.244;2023-04-01T06:54:10;7.50;;;4.68;;
11414;SDS011;5763;42.714;23.244;2023-04-01T06:56:41;7.00;;;5.40;;
11414;SDS011;5763;42.714;23.244;2023-04-01T06:59:12;7.93;;;4.82;;
11414;SDS011;5763;42.714;23.244;2023-04-01T07:01:42;9.10;;;5.40;;
11414;SDS011;5763;42.714;23.244;2023-04-01T07:04:13;8.48;;;5.20;;
11414;SDS011;5763;42.714;23.244;2023-04-01T07:06:46;8.82;;;5.60;;
11414;SDS011;5763;42.714;23.244;2023-04-01T07:09:19;13.90;;;5.97;;
11414;SDS011;5763;42.714;23.244;2023-04-01T07:11:50;9.18;;;5.93;;
11414;SDS011;5763;42.714;23.244;2023-04-01T07:14:22;9.80;;;4.72;;
11414;SDS011;5763;42.714;23.244;2023-04-01T07:16:53;9.98;;;4.95;;
11414;SDS011;5763;42.714;23.244;2023-04-01T07:19:27;8.38;;;4.68;;
11414;SDS011;5763;42.714;23.244;2023-04-01T07:21:59;12.15;;;4.70;;
11414;SDS011;5763;42.714;23.244;2023-04-01T07:24:32;6.40;;;4.82;;
11414;SDS011;5763;42.714;23.244;2023-04-01T07:27:00;9.52;;;4.60;;
11414;SDS011;5763;42.714;23.244;2023-04-01T07:29:27;9.43;;;4.53;;
11414;SDS011;5763;42.714;23.244;2023-04-01T07:32:02;8.63;;;3.90;;
11414;SDS011;5763;42.714;23.244;2023-04-01T07:34:36;8.40;;;4.32;;
11414;SDS011;5763;42.714;23.244;2023-04-01T07:37:13;8.88;;;4.40;;
11414;SDS011;5763;42.714;23.244;2023-04-01T07:39:48;9.23;;;4.18;;
11414;SDS011;5763;42.714;23.244;2023-04-01T07:42:26;9.48;;;3.97;;
11414;SDS011;5763;42.714;23.244;2023-04-01T07:45:05;7.53;;;4.05;;
11414;SDS011;5763;42.714;23.244;2023-04-01T07:47:45;4.35;;;3.30;;
11414;SDS011;5763;42.714;23.244;2023-04-01T07:50:25;7.28;;;4.28;;
11414;SDS011;5763;42.714;23.244;2023-04-01T07:52:55;5.20;;;4.00;;
11414;SDS011;5763;42.714;23.244;2023-04-01T07:55:39;7.57;;;3.70;;
11414;SDS011;5763;42.714;23.244;2023-04-01T07:58:12;7.43;;;3.80;;
11414;SDS011;5763;42.714;23.244;2023-04-01T08:00:48;7.95;;;4.18;;
11414;SDS011;5763;42.714;23.244;2023-04-01T08:06:17;9.05;;;4.72;;
11414;SDS011;5763;42.714;23.244;2023-04-01T08:08:52;9.43;;;4.22;;
11414;SDS011;5763;42.714;23.244;2023-04-01T08:11:31;9.23;;;3.88;;
11414;SDS011;5763;42.714;23.244;2023-04-01T08:14:08;5.70;;;3.90;;
11414;SDS011;5763;42.714;23.244;2023-04-01T08:16:44;7.38;;;4.22;;
11414;SDS011;5763;42.714;23.244;2023-04-01T08:19:21;9.57;;;4.53;;
11414;SDS011;5763;42.714;23.244;2023-04-01T08:21:58;7.30;;;4.38;;
11414;SDS011;5763;42.714;23.244;2023-04-01T08:24:33;6.82;;;4.28;;
11414;SDS011;5763;42.714;23.244;2023-04-01T08:27:05;6.40;;;4.28;;
11414;SDS011;5763;42.714;23.244;2023-04-01T08:29:40;5.60;;;4.10;;
11414;SDS011;5763;42.714;23.244;2023-04-01T08:32:12;7.72;;;3.88;;
11414;SDS011;5763;42.714;23.244;2023-04-01T08:34:45;7.95;;;4.30;;
11414;SDS011;5763;42.714;23.244;2023-04-01T08:37:17;7.18;;;3.80;;
11414;SDS011;5763;42.714;23.244;2023-04-01T08:39:48;7.15;;;4.03;;
11414;SDS011;5763;42.714;23.244;2023-04-01T08:42:24;10.35;;;3.83;;
11414;SDS011;5763;42.714;23.244;2023-04-01T08:45:10;9.18;;;4.20;;
11414;SDS011;5763;42.714;23.244;2023-04-01T08:48:12;6.10;;;3.42;;
11414;SDS011;5763;42.714;23.244;2023-04-01T08:51:16;6.32;;;3.33;;
11414;SDS011;5763;42.714;23.244;2023-04-01T08:53:56;8.55;;;3.17;;
11414;SDS011;5763;42.714;23.244;2023-04-01T08:56:48;5.75;;;3.30;;
11414;SDS011;5763;42.714;23.244;2023-04-01T08:59:32;8.73;;;3.08;;
11414;SDS011;5763;42.714;23.244;2023-04-01T09:08:15;5.75;;;2.22;;
11414;SDS011;5763;42.714;23.244;2023-04-01T09:10:56;5.80;;;2.35;;
11414;SDS011;5763;42.714;23.244;2023-04-01T09:13:32;5.65;;;2.45;;
11414;SDS011;5763;42.714;23.244;2023-04-01T09:16:21;6.57;;;2.58;;
11414;SDS011;5763;42.714;23.244;2023-04-01T09:19:00;9.10;;;2.50;;
11414;SDS011;5763;42.714;23.244;2023-04-01T09:24:44;7.65;;;2.60;;
11414;SDS011;5763;42.714;23.244;2023-04-01T09:27:26;7.13;;;2.20;;
11414;SDS011;5763;42.714;23.244;2023-04-01T09:33:09;7.75;;;2.60;;
11414;SDS011;5763;42.714;23.244;2023-04-01T09:35:50;5.57;;;2.60;;
11414;SDS011;5763;42.714;23.244;2023-04-01T09:38:29;8.35;;;2.63;;
11414;SDS011;5763;42.714;23.244;2023-04-01T09:41:02;5.05;;;2.58;;
11414;SDS011;5763;42.714;23.244;2023-04-01T09:43:40;7.13;;;2.30;;
11414;SDS011;5763;42.714;23.244;2023-04-01T09:46:24;6.38;;;2.47;;
11414;SDS011;5763;42.714;23.244;2023-04-01T09:49:11;4.85;;;2.22;;
11414;SDS011;5763;42.714;23.244;2023-04-01T09:51:53;6.18;;;2.17;;
11414;SDS011;5763;42.714;23.244;2023-04-01T09:54:34;7.80;;;2.80;;
11414;SDS011;5763;42.714;23.244;2023-04-01T09:57:19;4.43;;;2.72;;
11414;SDS011;5763;42.714;23.244;2023-04-01T10:00:06;4.88;;;1.73;;
11414;SDS011;5763;42.714;23.244;2023-04-01T10:03:02;6.60;;;2.13;;
11414;SDS011;5763;42.714;23.244;2023-04-01T10:18:25;3.67;;;1.55;;
11414;SDS011;5763;42.714;23.244;2023-04-01T10:24:22;6.03;;;1.60;;
11414;SDS011;5763;42.714;23.244;2023-04-01T10:33:37;6.53;;;2.10;;
11414;SDS011;5763;42.714;23.244;2023-04-01T10:36:28;6.40;;;1.90;;
11414;SDS011;5763;42.714;23.244;2023-04-01T10:39:20;4.47;;;2.17;;
11414;SDS011;5763;42.714;23.244;2023-04-01T10:48:10;4.07;;;1.55;;
11414;SDS011;5763;42.714;23.244;2023-04-01T10:57:10;3.72;;;1.60;;
11414;SDS011;5763;42.714;23.244;2023-04-01T11:12:39;5.20;;;2.53;;
11414;SDS011;5763;42.714;23.244;2023-04-01T11:15:37;7.13;;;2.70;;
11414;SDS011;5763;42.714;23.244;2023-04-01T11:18:29;5.88;;;2.80;;
11414;SDS011;5763;42.714;23.244;2023-04-01T11:21:40;4.57;;;1.60;;
11414;SDS011;5763;42.714;23.244;2023-04-01T11:24:18;8.52;;;2.10;;
11414;SDS011;5763;42.714;23.244;2023-04-01T11:27:10;3.88;;;1.40;;
11414;SDS011;5763;42.714;23.244;2023-04-01T11:29:56;6.32;;;1.73;;
11414;SDS011;5763;42.714;23.244;2023-04-01T11:41:24;3.75;;;1.65;;
11414;SDS011;5763;42.714;23.244;2023-04-01T11:44:07;3.95;;;1.70;;
11414;SDS011;5763;42.714;23.244;2023-04-01T11:46:44;3.88;;;1.60;;
11414;SDS011;5763;42.714;23.244;2023-04-01T11:49:42;3.53;;;1.60;;
11414;SDS011;5763;42.714;23.244;2023-04-01T11:55:36;3.53;;;1.65;;
11414;SDS011;5763;42.714;23.244;2023-04-01T11:58:16;5.82;;;2.10;;
11414;SDS011;5763;42.714;23.244;2023-04-01T12:04:05;5.25;;;2.22;;
11414;SDS011;5763;42.714;23.244;2023-04-01T12:06:51;4.50;;;2.10;;
11414;SDS011;5763;42.714;23.244;2023-04-01T12:09:30;5.82;;;2.72;;
11414;SDS011;5763;42.714;23.244;2023-04-01T12:12:11;5.30;;;2.55;;
11414;SDS011;5763;42.714;23.244;2023-04-01T12:14:47;5.30;;;3.00;;
11414;SDS011;5763;42.714;23.244;2023-04-01T12:17:26;4.38;;;2.65;;
11414;SDS011;5763;42.714;23.244;2023-04-01T12:19:58;3.90;;;2.30;;
11414;SDS011;5763;42.714;23.244;2023-04-01T12:22:45;5.15;;;2.53;;
11414;SDS011;5763;42.714;23.244;2023-04-01T12:25:22;3.97;;;2.20;;
11414;SDS011;5763;42.714;23.244;2023-04-01T12:28:02;4.18;;;2.58;;
11414;SDS011;5763;42.714;23.244;2023-04-01T12:30:46;5.55;;;2.17;;
11414;SDS011;5763;42.714;23.244;2023-04-01T12:33:29;3.67;;;2.15;;
11414;SDS011;5763;42.714;23.244;2023-04-01T12:36:30;6.70;;;3.97;;
11414;SDS011;5763;42.714;23.244;2023-04-01T12:39:11;5.43;;;2.95;;
11414;SDS011;5763;42.714;23.244;2023-04-01T12:41:49;5.90;;;2.80;;
11414;SDS011;5763;42.714;23.244;2023-04-01T12:44:26;4.75;;;2.88;;
11414;SDS011;5763;42.714;23.244;2023-04-01T12:50:25;6.75;;;3.08;;
11414;SDS011;5763;42.714;23.244;2023-04-01T12:53:07;5.43;;;2.65;;
11414;SDS011;5763;42.714;23.244;2023-04-01T12:55:46;2.63;;;2.05;;
11414;SDS011;5763;42.714;23.244;2023-04-01T13:01:44;1.95;;;1.35;;
11414;SDS011;5763;42.714;23.244;2023-04-01T13:07:47;3.85;;;1.80;;
11414;SDS011;5763;42.714;23.244;2023-04-01T13:10:31;1.65;;;1.13;;
11414;SDS011;5763;42.714;23.244;2023-04-01T13:13:16;2.35;;;1.15;;
11414;SDS011;5763;42.714;23.244;2023-04-01T13:15:57;2.80;;;1.65;;
11414;SDS011;5763;42.714;23.244;2023-04-01T13:18:32;3.35;;;1.77;;
11414;SDS011;5763;42.714;23.244;2023-04-01T13:21:08;3.97;;;1.90;;
11414;SDS011;5763;42.714;23.244;2023-04-01T13:23:55;2.78;;;1.67;;
11414;SDS011;5763;42.714;23.244;2023-04-01T13:26:28;2.65;;;1.83;;
11414;SDS011;5763;42.714;23.244;2023-04-01T13:29:04;3.85;;;2.20;;
11414;SDS011;5763;42.714;23.244;2023-04-01T13:31:40;4.47;;;1.70;;
11414;SDS011;5763;42.714;23.244;2023-04-01T13:34:28;4.78;;;1.67;;
11414;SDS011;5763;42.714;23.244;2023-04-01T13:37:05;4.25;;;2.25;;
11414;SDS011;5763;42.714;23.244;2023-04-01T13:39:57;2.75;;;1.63;;
11414;SDS011;5763;42.714;23.244;2023-04-01T13:42:38;1.63;;;1.45;;
11414;SDS011;5763;42.714;23.244;2023-04-01T13:45:10;2.92;;;1.50;;
11414;SDS011;5763;42.714;23.244;2023-04-01T13:47:50;2.63;;;1.90;;
11414;SDS011;5763;42.714;23.244;2023-04-01T13:50:54;3.08;;;1.80;;
11414;SDS011;5763;42.714;23.244;2023-04-01T13:53:38;5.25;;;2.25;;
11414;SDS011;5763;42.714;23.244;2023-04-01T13:56:23;1.92;;;1.60;;
11414;SDS011;5763;42.714;23.244;2023-04-01T13:59:13;2.10;;;1.75;;
11414;SDS011;5763;42.714;23.244;2023-04-01T14:01:59;2.63;;;1.60;;
11414;SDS011;5763;42.714;23.244;2023-04-01T14:04:59;2.40;;;1.60;;
11414;SDS011;5763;42.714;23.244;2023-04-01T14:07:41;1.52;;;1.25;;
11414;SDS011;5763;42.714;23.244;2023-04-01T14:10:23;2.53;;;1.30;;
11414;SDS011;5763;42.714;23.244;2023-04-01T14:12:59;2.90;;;1.63;;
11414;SDS011;5763;42.714;23.244;2023-04-01T14:15:48;2.38;;;1.10;;
11414;SDS011;5763;42.714;23.244;2023-04-01T14:18:39;1.95;;;1.05;;
11414;SDS011;5763;42.714;23.244;2023-04-01T14:21:21;1.58;;;0.98;;
11414;SDS011;5763;42.714;23.244;2023-04-01T14:27:08;1.98;;;1.00;;
11414;SDS011;5763;42.714;23.244;2023-04-01T14:29:50;3.45;;;1.20;;
11414;SDS011;5763;42.714;23.244;2023-04-01T14:32:28;3.10;;;1.15;;
11414;SDS011;5763;42.714;23.244;2023-04-01T14:35:11;1.40;;;1.10;;
11414;SDS011;5763;42.714;23.244;2023-04-01T14:38:01;1.70;;;1.30;;
11414;SDS011;5763;42.714;23.244;2023-04-01T14:40:43;2.05;;;1.05;;
11414;SDS011;5763;42.714;23.244;2023-04-01T14:43:36;3.72;;;1.27;;
11414;SDS011;5763;42.714;23.244;2023-04-01T14:49:20;2.33;;;1.40;;
11414;SDS011;5763;42.714;23.244;2023-04-01T14:51:49;3.03;;;1.08;;
11414;SDS011;5763;42.714;23.244;2023-04-01T14:54:19;1.67;;;1.00;;
11414;SDS011;5763;42.714;23.244;2023-04-01T14:57:01;3.25;;;1.75;;
11414;SDS011;5763;42.714;23.244;2023-04-01T14:59:38;4.07;;;2.78;;
11414;SDS011;5763;42.714;23.244;2023-04-01T15:02:14;2.88;;;1.05;;
11414;SDS011;5763;42.714;23.244;2023-04-01T15:04:57;1.63;;;1.15;;
11414;SDS011;5763;42.714;23.244;2023-04-01T15:07:47;1.85;;;0.95;;
11414;SDS011;5763;42.714;23.244;2023-04-01T15:10:30;3.28;;;1.15;;
11414;SDS011;5763;42.714;23.244;2023-04-01T15:13:21;2.50;;;0.88;;
11414;SDS011;5763;42.714;23.244;2023-04-01T15:16:04;2.28;;;1.20;;
11414;SDS011;5763;42.714;23.244;2023-04-01T15:18:47;2.60;;;1.00;;
11414;SDS011;5763;42.714;23.244;2023-04-01T15:21:25;2.42;;;1.10;;
11414;SDS011;5763;42.714;23.244;2023-04-01T15:24:06;2.08;;;1.10;;
11414;SDS011;5763;42.714;23.244;2023-04-01T15:26:42;2.78;;;1.17;;
11414;SDS011;5763;42.714;23.244;2023-04-01T15:32:15;2.65;;;1.13;;
11414;SDS011;5763;42.714;23.244;2023-04-01T15:34:51;1.50;;;1.10;;
11414;SDS011;5763;42.714;23.244;2023-04-01T15:37:29;2.17;;;0.90;;
11414;SDS011;5763;42.714;23.244;2023-04-01T15:40:08;1.58;;;1.00;;
11414;SDS011;5763;42.714;23.244;2023-04-01T15:42:49;2.75;;;1.25;;
11414;SDS011;5763;42.714;23.244;2023-04-01T15:45:31;1.33;;;0.90;;
11414;SDS011;5763;42.714;23.244;2023-04-01T15:48:14;2.35;;;0.77;;
11414;SDS011;5763;42.714;23.244;2023-04-01T15:57:08;3.70;;;2.67;;
11414;SDS011;5763;42.714;23.244;2023-04-01T15:59:51;3.10;;;2.05;;
11414;SDS011;5763;42.714;23.244;2023-04-01T16:02:29;2.00;;;1.80;;
11414;SDS011;5763;42.714;23.244;2023-04-01T16:05:01;2.58;;;2.22;;
11414;SDS011;5763;42.714;23.244;2023-04-01T16:07:51;3.38;;;1.80;;
11414;SDS011;5763;42.714;23.244;2023-04-01T16:10:35;1.80;;;1.55;;
11414;SDS011;5763;42.714;23.244;2023-04-01T16:13:18;3.25;;;1.77;;
11414;SDS011;5763;42.714;23.244;2023-04-01T16:15:57;2.10;;;1.90;;
11414;SDS011;5763;42.714;23.244;2023-04-01T16:18:40;2.78;;;2.13;;
11414;SDS011;5763;42.714;23.244;2023-04-01T16:21:21;3.38;;;2.80;;
11414;SDS011;5763;42.714;23.244;2023-04-01T16:24:04;3.47;;;2.60;;
11414;SDS011;5763;42.714;23.244;2023-04-01T16:26:44;3.53;;;2.97;;
11414;SDS011;5763;42.714;23.244;2023-04-01T16:29:19;4.57;;;3.30;;
11414;SDS011;5763;42.714;23.244;2023-04-01T16:31:55;4.07;;;3.17;;
11414;SDS011;5763;42.714;23.244;2023-04-01T16:34:34;2.80;;;2.60;;
11414;SDS011;5763;42.714;23.244;2023-04-01T16:37:05;2.63;;;2.42;;
11414;SDS011;5763;42.714;23.244;2023-04-01T16:39:43;2.63;;;2.42;;
11414;SDS011;5763;42.714;23.244;2023-04-01T16:42:17;2.20;;;2.00;;
11414;SDS011;5763;42.714;23.244;2023-04-01T16:44:52;2.15;;;1.90;;
11414;SDS011;5763;42.714;23.244;2023-04-01T16:47:21;1.70;;;1.40;;
11414;SDS011;5763;42.714;23.244;2023-04-01T16:49:54;1.73;;;1.63;;
11414;SDS011;5763;42.714;23.244;2023-04-01T16:52:36;1.83;;;1.30;;
11414;SDS011;5763;42.714;23.244;2023-04-01T16:55:16;1.40;;;1.30;;
11414;SDS011;5763;42.714;23.244;2023-04-01T16:57:46;1.50;;;1.40;;
11414;SDS011;5763;42.714;23.244;2023-04-01T17:00:20;1.20;;;1.10;;
11414;SDS011;5763;42.714;23.244;2023-04-01T17:02:55;1.77;;;1.45;;
11414;SDS011;5763;42.714;23.244;2023-04-01T17:05:38;2.17;;;1.35;;
11414;SDS011;5763;42.714;23.244;2023-04-01T17:08:10;3.35;;;2.30;;
11414;SDS011;5763;42.714;23.244;2023-04-01T17:10:49;4.55;;;2.60;;
11414;SDS011;5763;42.714;23.244;2023-04-01T17:13:35;3.42;;;1.33;;
11414;SDS011;5763;42.714;23.244;2023-04-01T17:16:14;1.00;;;0.90;;
11414;SDS011;5763;42.714;23.244;2023-04-01T17:18:56;1.10;;;1.00;;
11414;SDS011;5763;42.714;23.244;2023-04-01T17:21:36;1.20;;;1.10;;
11414;SDS011;5763;42.714;23.244;2023-04-01T17:24:18;1.02;;;0.93;;
11414;SDS011;5763;42.714;23.244;2023-04-01T17:26:56;1.63;;;1.33;;
11414;SDS011;5763;42.714;23.244;2023-04-01T17:29:37;1.35;;;1.25;;
11414;SDS011;5763;42.714;23.244;2023-04-01T17:32:10;1.45;;;1.30;;
11414;SDS011;5763;42.714;23.244;2023-04-01T17:34:47;2.45;;;1.60;;